SBUL/UDI METAR and TAF weather

Enter ICAO airport designator
Station Type Date Time Source
SBUL METAR 2019/08/24 07:00 UTC NOAA

SBUL 240700Z 13007KT CAVOK 17/09 Q1021


Station Type Date Time Source
SBUL Decoded METAR 2019/08/24 07:00 UTC NOAA

Station name not available
Aug 24, 2019 - 03:00 AM EDT / 2019.08.24 0700 UTC
Wind: from the SE (130 degrees) at 8 MPH (7 KT):0
Visibility: greater than 7 mile(s):0
Temperature: 62 F (17 C)
Dew Point: 48 F (9 C)
Relative Humidity: 59%
Pressure (altimeter): 30.15 in. Hg (1021 hPa)
ob: SBUL 240700Z 13007KT CAVOK 17/09 Q1021
cycle: 7

Station Type Date Time Source
SBUL TAF 2019/08/24 06:30 UTC NOAA

TAF SBUL 240230Z 2406/2418 16008KT CAVOK TN12/2409Z TX27/2417Z
BECMG 2407/2409 09005KT
BECMG 2409/2411 09010KT
BECMG 2412/2414 27008KT
BECMG 2415/2417 20010KT
RMK PGQ

Example: see airport list